Time;durP1;ratioP1;P1;durP2;ratioP2;P2;SDS_P1;SDS_P2;PMS_P1;PMS_P2;Temp;Humidity;BMP_temperature;BMP_pressure;BME280_temperature;BME280_humidity;BME280_pressure;Samples;Min_cycle;Max_cycle;Signal;HPM_P1;HPM_P2
2022/05/17 00:02:02;;;;;;;;;;;;;;;15.54;100.00;-25504.34;5037137;28;20453;-75
2022/05/17 00:04:27;;;;;;;;;;;;;;;15.54;100.00;-25504.34;5036737;28;19963;-76
2022/05/17 00:06:52;;;;;;;;;;;;;;;15.56;100.00;-25504.91;5055080;28;20122;-75
2022/05/17 00:09:17;;;;;;;;;;;;;;;15.53;100.00;-25504.06;5037109;28;19955;-76
2022/05/17 00:11:44;;;;;;;;;;;;;;;15.55;100.00;-25504.63;5036588;28;19916;-75
2022/05/17 00:14:12;;;;;;;;;;;;;;;15.58;100.00;-25505.66;5055059;28;20321;-77
2022/05/17 00:16:37;;;;;;;;;;;;;;;15.56;100.00;-25504.91;5036559;28;19920;-77
2022/05/17 00:19:03;;;;;;;;;;;;;;;15.58;100.00;-25505.66;5036982;28;19924;-75
2022/05/17 00:21:28;;;;;;;;;;;;;;;15.58;100.00;-25505.50;5036621;28;19917;-76
2022/05/17 00:23:53;;;;;;;;;;;;;;;15.56;100.00;-25505.06;5037050;28;19924;-76
2022/05/17 00:26:19;;;;;;;;;;;;;;;15.56;100.00;-25504.91;5033426;28;19959;-76
2022/05/17 00:28:44;;;;;;;;;;;;;;;15.56;100.00;-25504.91;5033389;28;19969;-76
2022/05/17 00:31:09;;;;;;;;;;;;;;;15.52;100.00;-25503.75;5033827;28;20339;-76
2022/05/17 00:33:39;;;;;;;;;;;;;;;15.46;100.00;-25502.00;5033187;28;19921;-77
2022/05/17 00:36:04;;;;;;;;;;;;;;;15.42;100.00;-25501.00;5034912;28;19917;-79
2022/05/17 00:38:30;;;;;;;;;;;;;;;15.41;100.00;-25500.84;5033608;28;19939;-76
2022/05/17 00:40:55;;;;;;;;;;;;;;;15.44;100.00;-25501.56;5033714;28;20345;-80
2022/05/17 00:46:20;;;;;;;;;;;;;;;15.46;100.00;-25502.00;5034825;28;20427;-76
2022/05/17 00:48:45;;;;;;;;;;;;;;;15.50;100.00;-25503.31;5033554;28;19917;-77
2022/05/17 00:51:10;;;;;;;;;;;;;;;15.49;100.00;-25501.09;5033439;28;19917;-79
2022/05/17 00:53:36;;;;;;;;;;;;;;;15.52;100.00;-25172.88;5048937;28;20388;-78
2022/05/17 00:56:07;;;;;;;;;;;;;;;15.50;100.00;-24843.34;5033507;28;19943;-78
2022/05/17 00:58:34;;;;;;;;;;;;;;;15.52;100.00;-24186.00;5032983;28;19947;-76
2022/05/17 01:01:02;;;;;;;;;;;;;;;15.53;100.00;-24186.16;5034549;28;19921;-79
2022/05/17 01:03:34;;;;;;;;;;;;;;;15.51;100.00;-23856.56;5050065;28;19918;-76
2022/05/17 01:06:00;;;;;;;;;;;;;;;15.51;100.00;-23856.56;5033392;28;19990;-77
2022/05/17 01:08:26;;;;;;;;;;;;;;;15.50;100.00;-23198.09;5034017;28;19917;-75
2022/05/17 01:10:52;;;;;;;;;;;;;;;15.45;100.00;-23855.09;5032839;28;20301;-77
2022/05/17 01:16:09;;;;;;;;;;;;;;;15.25;100.00;-25496.34;5034449;28;19964;-76
2022/05/17 01:18:37;;;;;;;;;;;;;;;15.22;100.00;-25495.47;5034052;28;19921;-76
2022/05/17 01:21:02;;;;;;;;;;;;;;;15.20;100.00;-25494.88;5033000;28;19924;-78
2022/05/17 01:23:28;;;;;;;;;;;;;;;15.17;100.00;-25493.88;5033503;28;20289;-75
2022/05/17 01:25:53;;;;;;;;;;;;;;;15.15;100.00;-25493.28;5032502;28;19921;-76
2022/05/17 01:28:24;;;;;;;;;;;;;;;15.16;100.00;-25493.72;5032786;28;20316;-77
2022/05/17 01:30:50;;;;;;;;;;;;;;;15.16;100.00;-25493.72;5032963;28;19928;-76
2022/05/17 01:33:17;;;;;;;;;;;;;;;15.15;100.00;-25493.44;5032857;28;19917;-78
2022/05/17 01:35:43;;;;;;;;;;;;;;;15.13;100.00;-25492.84;5032411;28;20399;-76
2022/05/17 01:38:08;;;;;;;;;;;;;;;15.08;100.00;-25491.53;5032288;28;19917;-75
2022/05/17 01:40:34;;;;;;;;;;;;;;;15.06;100.00;-25490.97;5031355;28;19956;-77
2022/05/17 01:43:00;;;;;;;;;;;;;;;15.03;100.00;-25490.09;5032172;28;19921;-77
2022/05/17 01:45:25;;;;;;;;;;;;;;;15.04;100.00;-25490.38;5032359;28;19940;-76
2022/05/17 01:47:51;;;;;;;;;;;;;;;15.04;100.00;-25490.38;5031718;28;19917;-79
2022/05/17 01:50:16;;;;;;;;;;;;;;;14.98;100.00;-25488.47;5032026;28;19927;-76
2022/05/17 01:52:41;;;;;;;;;;;;;;;14.96;100.00;-25488.03;5032320;28;20293;-77
2022/05/17 01:55:07;;;;;;;;;;;;;;;14.90;100.00;-25486.44;5031965;28;19924;-75
2022/05/17 01:57:32;;;;;;;;;;;;;;;14.90;100.00;-25486.44;5032301;28;19941;-76
2022/05/17 01:59:58;;;;;;;;;;;;;;;14.83;100.00;-25484.25;5031718;28;20309;-74
2022/05/17 02:02:23;;;;;;;;;;;;;;;14.79;100.00;-25483.25;5031627;28;19924;-75
2022/05/17 02:04:48;;;;;;;;;;;;;;;14.75;100.00;-25482.06;5031523;28;20421;-75
2022/05/17 02:07:13;;;;;;;;;;;;;;;14.75;100.00;-25482.06;5031346;28;19931;-75
2022/05/17 02:09:39;;;;;;;;;;;;;;;14.75;100.00;-25482.06;5048261;28;19924;-75
2022/05/17 02:12:05;;;;;;;;;;;;;;;14.76;100.00;-25482.38;5031161;28;19917;-78
2022/05/17 02:14:31;;;;;;;;;;;;;;;14.71;100.00;-25481.06;5030943;28;20370;-74
2022/05/17 02:16:58;;;;;;;;;;;;;;;14.71;100.00;-25480.91;5031504;28;20468;-74
2022/05/17 02:19:24;;;;;;;;;;;;;;;14.68;100.00;-25480.19;5031827;28;19917;-75
2022/05/17 02:21:49;;;;;;;;;;;;;;;14.68;100.00;-25480.03;5031012;28;19927;-76
2022/05/17 02:24:15;;;;;;;;;;;;;;;14.68;100.00;-25480.19;5031437;28;19917;-75
2022/05/17 02:26:40;;;;;;;;;;;;;;;14.68;100.00;-25480.19;5031096;28;19971;-75
2022/05/17 02:29:05;;;;;;;;;;;;;;;14.68;100.00;-25480.03;5031404;28;20363;-75
2022/05/17 02:31:31;;;;;;;;;;;;;;;14.66;100.00;-25479.59;5031807;28;19967;-77
2022/05/17 02:33:56;;;;;;;;;;;;;;;14.71;100.00;-25480.91;5032835;28;20008;-75
2022/05/17 02:36:22;;;;;;;;;;;;;;;14.70;100.00;-25480.75;5031128;28;20301;-75
2022/05/17 02:38:47;;;;;;;;;;;;;;;14.72;100.00;-25481.34;5032194;28;20273;-77
2022/05/17 02:41:13;;;;;;;;;;;;;;;14.81;100.00;-25483.69;5031475;28;19917;-75
2022/05/17 02:43:38;;;;;;;;;;;;;;;14.81;100.00;-25483.69;5030661;28;19917;-77
2022/05/17 02:46:04;;;;;;;;;;;;;;;14.80;100.00;-25483.38;5030756;28;20351;-79
2022/05/17 02:48:29;;;;;;;;;;;;;;;14.80;100.00;-25483.38;5031061;28;19924;-75
2022/05/17 02:50:55;;;;;;;;;;;;;;;14.89;100.00;-25486.00;5030826;28;20393;-77
2022/05/17 02:53:21;;;;;;;;;;;;;;;14.98;100.00;-25488.63;5030594;28;20435;-75
2022/05/17 02:55:46;;;;;;;;;;;;;;;14.99;100.00;-25488.78;5031122;28;20346;-77
2022/05/17 02:58:11;;;;;;;;;;;;;;;14.99;100.00;-25488.91;5030974;28;19924;-79
2022/05/17 03:00:37;;;;;;;;;;;;;;;14.95;100.00;-25487.75;5031976;28;19925;-77
2022/05/17 03:03:06;;;;;;;;;;;;;;;14.89;100.00;-25486.16;5031367;28;19923;-77
2022/05/17 03:05:32;;;;;;;;;;;;;;;14.85;100.00;-25484.84;5031227;28;19929;-78
2022/05/17 03:07:57;;;;;;;;;;;;;;;14.84;100.00;-25484.56;5031117;28;19917;-75
2022/05/17 03:10:22;;;;;;;;;;;;;;;14.86;100.00;-25485.28;5031114;28;19924;-79
2022/05/17 03:12:47;;;;;;;;;;;;;;;14.90;100.00;-25486.31;5030992;28;19917;-79
2022/05/17 03:15:16;;;;;;;;;;;;;;;14.90;100.00;-25486.31;5031333;28;19968;-78
2022/05/17 03:17:41;;;;;;;;;;;;;;;14.79;100.00;-25483.25;5030561;28;19921;-78
2022/05/17 03:20:06;;;;;;;;;;;;;;;14.67;100.00;-25479.88;5032448;28;19928;-78
2022/05/17 03:22:31;;;;;;;;;;;;;;;14.61;100.00;-25478.16;5031091;28;19918;-78
2022/05/17 03:24:57;;;;;;;;;;;;;;;14.51;100.00;-25475.22;5030919;28;19929;-75
2022/05/17 03:27:24;;;;;;;;;;;;;;;14.51;100.00;-25475.22;5030848;28;20447;-77
2022/05/17 03:29:49;;;;;;;;;;;;;;;14.54;100.00;-25476.25;5047467;28;20030;-75
2022/05/17 03:32:14;;;;;;;;;;;;;;;14.53;100.00;-25475.81;5031078;28;20409;-77
2022/05/17 03:34:41;;;;;;;;;;;;;;;14.62;100.00;-25478.44;5031365;28;20365;-78
2022/05/17 03:37:06;;;;;;;;;;;;;;;14.66;100.00;-25479.59;5031692;28;20059;-79
2022/05/17 03:39:31;;;;;;;;;;;;;;;14.74;100.00;-25481.63;5031642;28;19972;-80
2022/05/17 03:41:56;;;;;;;;;;;;;;;14.86;100.00;-25485.28;5032896;28;19921;-80
2022/05/17 03:44:22;;;;;;;;;;;;;;;14.95;100.00;-25487.75;5031587;28;19925;-77
2022/05/17 03:46:47;;;;;;;;;;;;;;;14.96;100.00;-25488.03;5032791;28;19917;-78
2022/05/17 03:49:12;;;;;;;;;;;;;;;14.93;100.00;-25487.03;5031680;28;20380;-78
2022/05/17 03:51:38;;;;;;;;;;;;;;;14.91;100.00;-25486.59;5031306;28;20302;-81
2022/05/17 03:54:03;;;;;;;;;;;;;;;14.98;100.00;-25488.47;5031135;28;19975;-78
2022/05/17 03:56:28;;;;;;;;;;;;;;;15.07;100.00;-25491.09;5030985;28;19921;-78
2022/05/17 03:58:53;;;;;;;;;;;;;;;15.05;100.00;-25490.66;5030928;28;19923;-76
2022/05/17 04:01:19;;;;;;;;;;;;;;;15.11;100.00;-25492.25;5029182;28;19917;-76
2022/05/17 04:03:44;;;;;;;;;;;;;;;15.08;100.00;-25491.53;5029028;28;20008;-75
2022/05/17 04:06:10;;;;;;;;;;;;;;;15.17;100.00;-25494.00;5030063;28;19918;-76
2022/05/17 04:08:36;;;;;;;;;;;;;;;15.18;100.00;-25494.16;5029882;28;19924;-77
2022/05/17 04:11:02;;;;;;;;;;;;;;;15.23;100.00;-25495.63;5047265;28;19972;-78
2022/05/17 04:13:29;;;;;;;;;;;;;;;15.25;100.00;-25496.19;5030429;28;20388;-79
2022/05/17 04:15:56;;;;;;;;;;;;;;;15.28;100.00;-25496.94;5031644;28;19917;-80
2022/05/17 04:18:21;;;;;;;;;;;;;;;15.17;100.00;-25493.88;5031267;28;19913;-79
2022/05/17 04:20:46;;;;;;;;;;;;;;;15.04;100.00;-25490.38;5031260;28;20387;-80
2022/05/17 04:23:12;;;;;;;;;;;;;;;15.10;100.00;-25491.81;5030919;28;20464;-77
2022/05/17 04:25:37;;;;;;;;;;;;;;;15.11;100.00;-25492.13;5029301;28;19956;-77
2022/05/17 04:28:03;;;;;;;;;;;;;;;15.15;100.00;-25493.28;5030472;28;20710;-77
2022/05/17 04:30:28;;;;;;;;;;;;;;;15.19;100.00;-25494.59;5033667;28;20293;-78
2022/05/17 04:32:54;;;;;;;;;;;;;;;15.25;100.00;-25496.19;5050068;28;19918;-79
2022/05/17 04:35:19;;;;;;;;;;;;;;;15.28;100.00;-25497.06;5033342;28;19948;-76
2022/05/17 04:37:45;;;;;;;;;;;;;;;15.31;100.00;-25497.94;5034350;28;19920;-79
2022/05/17 04:40:11;;;;;;;;;;;;;;;15.40;100.00;-25500.56;5033744;28;20400;-76
2022/05/17 04:42:36;;;;;;;;;;;;;;;15.43;100.00;-25501.44;5034507;28;19913;-77
2022/05/17 04:45:03;;;;;;;;;;;;;;;15.50;100.00;-25503.31;5033757;28;20393;-77
2022/05/17 04:47:28;;;;;;;;;;;;;;;15.53;100.00;-25504.06;5033316;28;20408;-78
2022/05/17 04:49:54;;;;;;;;;;;;;;;15.57;100.00;-25505.22;5033238;28;19914;-75
2022/05/17 04:52:19;;;;;;;;;;;;;;;15.69;100.00;-25508.69;5033522;28;19917;-79
2022/05/17 04:54:45;;;;;;;;;;;;;;;15.76;100.00;-25510.59;5034462;28;19920;-78
2022/05/17 04:57:10;;;;;;;;;;;;;;;15.82;100.00;-25512.34;5033104;28;19917;-75
2022/05/17 04:59:36;;;;;;;;;;;;;;;15.88;100.00;-25513.94;5032867;28;20012;-77
2022/05/17 05:02:01;;;;;;;;;;;;;;;15.96;100.00;-25516.25;5033703;28;20004;-77
2022/05/17 05:04:34;;;;;;;;;;;;;;;16.04;100.00;-25518.44;5033229;28;19921;-78
2022/05/17 05:07:00;;;;;;;;;;;;;;;16.09;100.00;-25188.72;5034547;28;19917;-79
2022/05/17 05:09:25;;;;;;;;;;;;;;;16.19;100.00;-23215.09;5033451;28;19921;-78
2022/05/17 05:11:50;;;;;;;;;;;;;;;16.17;100.00;-20248.34;5033126;28;20001;-80
2022/05/17 05:14:16;;;;;;;;;;;;;;;16.21;100.00;-18270.09;5033106;28;19917;-76
2022/05/17 05:16:41;;;;;;;;;;;;;;;16.20;100.00;-16950.13;5033280;28;20385;-78
2022/05/17 05:19:06;;;;;;;;;;;;;;;16.17;100.00;-17279.66;5034366;28;19975;-79
2022/05/17 05:21:31;;;;;;;;;;;;;;;16.20;100.00;-14639.19;5034281;28;19917;-79
2022/05/17 05:23:57;;;;;;;;;;;;;;;16.18;100.00;-14969.16;5032827;28;19956;-78
2022/05/17 05:26:22;;;;;;;;;;;;;;;16.17;100.00;-16949.59;5033044;28;19921;-77
2022/05/17 05:28:47;;;;;;;;;;;;;;;16.17;100.00;-16289.50;5032917;28;19978;-77
2022/05/17 05:31:15;;;;;;;;;;;;;;;16.17;100.00;-15629.41;5033165;28;20334;-80
2022/05/17 05:33:41;;;;;;;;;;;;;;;16.13;100.00;-13647.75;5033173;28;19924;-79
2022/05/17 05:36:07;;;;;;;;;;;;;;;16.14;100.00;-16949.28;5034318;28;19925;-80
2022/05/17 05:38:34;;;;;;;;;;;;;;;16.12;100.00;-17938.81;5031821;28;19964;-75
2022/05/17 05:40:59;;;;;;;;;;;;;;;16.09;100.00;-20246.81;5031636;28;19921;-78
2022/05/17 05:43:25;;;;;;;;;;;;;;;16.19;100.00;-22885.72;5032271;28;20284;-77
2022/05/17 05:45:50;;;;;;;;;;;;;;;16.13;100.00;-25519.28;5031246;28;20027;-79
2022/05/17 05:48:15;;;;;;;;;;;;;;;16.03;100.00;-25518.28;5033064;28;20521;-77
2022/05/17 05:50:41;;;;;;;;;;;;;;;15.95;100.00;-25516.13;5032852;28;19923;-80
2022/05/17 05:53:10;;;;;;;;;;;;;;;15.94;100.00;-25515.69;5031369;28;19921;-79
2022/05/17 05:55:36;;;;;;;;;;;;;;;15.90;100.00;-25514.53;5032123;28;19932;-75
2022/05/17 05:58:01;;;;;;;;;;;;;;;15.89;100.00;-25514.22;5031956;28;20000;-75
2022/05/17 06:00:27;;;;;;;;;;;;;;;15.88;100.00;-25513.94;5031440;28;19992;-77
2022/05/17 06:02:53;;;;;;;;;;;;;;;15.89;100.00;-25514.22;5032018;28;19920;-77
2022/05/17 06:05:19;;;;;;;;;;;;;;;15.92;100.00;-25515.09;5031730;28;19921;-78
2022/05/17 06:07:45;;;;;;;;;;;;;;;16.05;100.00;-25518.72;5030841;28;19924;-75
2022/05/17 06:10:11;;;;;;;;;;;;;;;16.08;100.00;-25519.75;5032528;28;20168;-77
2022/05/17 06:12:36;;;;;;;;;;;;;;;16.12;100.00;-25520.78;5032267;28;19925;-74
2022/05/17 06:15:02;;;;;;;;;;;;;;;16.08;100.00;-25519.59;5030309;28;19913;-74
2022/05/17 06:17:27;;;;;;;;;;;;;;;16.15;100.00;-25521.63;5031413;28;19917;-75
2022/05/17 06:19:56;;;;;;;;;;;;;;;16.06;100.00;-25519.03;5031807;28;20008;-76
2022/05/17 06:22:22;;;;;;;;;;;;;;;16.09;100.00;-25519.91;5046637;28;19913;-74
2022/05/17 06:24:47;;;;;;;;;;;;;;;16.07;100.00;-25519.31;5029303;28;19984;-73
2022/05/17 06:27:12;;;;;;;;;;;;;;;16.22;100.00;-25523.69;5030139;28;19943;-76
2022/05/17 06:29:38;;;;;;;;;;;;;;;16.20;100.00;-25523.09;5029738;28;20011;-74
2022/05/17 06:32:03;;;;;;;;;;;;;;;16.12;100.00;-24201.78;5031205;28;19960;-73
2022/05/17 06:34:29;;;;;;;;;;;;;;;16.06;100.00;-24529.47;5031538;28;19917;-73
2022/05/17 06:36:54;;;;;;;;;;;;;;;16.08;100.00;-25519.75;5029805;28;19921;-74
2022/05/17 06:39:19;;;;;;;;;;;;;;;16.01;100.00;-25515.78;5030137;28;19917;-74
2022/05/17 06:41:44;;;;;;;;;;;;;;;15.92;100.00;-25184.16;5029887;28;19983;-73
2022/05/17 06:44:11;;;;;;;;;;;;;;;16.04;100.00;-23540.81;5030128;28;19993;-74
2022/05/17 06:46:36;;;;;;;;;;;;;;;16.01;100.00;-23869.38;5046863;28;20553;-73
2022/05/17 06:49:01;;;;;;;;;;;;;;;15.98;100.00;-20574.16;5030029;28;19917;-73
2022/05/17 06:51:27;;;;;;;;;;;;;;;15.90;100.00;-20572.47;5030360;28;19928;-75
2022/05/17 06:53:53;;;;;;;;;;;;;;;16.05;100.00;-18927.00;5030386;28;19917;-74
2022/05/17 06:56:18;;;;;;;;;;;;;;;16.13;100.00;-18928.56;5031491;28;19917;-74
2022/05/17 06:58:44;;;;;;;;;;;;;;;16.37;100.00;-19262.63;5030953;28;19917;-75
2022/05/17 07:01:09;;;;;;;;;;;;;;;16.47;100.00;-15633.25;5031117;28;19917;-76
2022/05/17 07:03:35;;;;;;;;;;;;;;;16.64;100.00;-15635.31;5029778;28;19956;-75
2022/05/17 07:06:01;;;;;;;;;;;;;;;16.69;100.00;-11999.91;5030559;28;19962;-75
2022/05/17 07:08:26;;;;;;;;;;;;;;;16.72;100.00;-6373.69;5031473;28;19922;-73
2022/05/17 07:13:35;;;;;;;;;;;;;;;16.83;100.00;-1069.50;5031907;28;20437;-77
2022/05/17 07:16:01;;;;;;;;;;;;;;;16.90;100.00;1254.16;5047488;28;19969;-76
2022/05/17 07:18:28;;;;;;;;;;;;;;;17.07;100.00;3581.59;5031365;28;19928;-76
2022/05/17 07:20:53;;;;;;;;;;;;;;;17.25;100.00;2255.63;5030225;28;19924;-76
2022/05/17 07:23:21;;;;;;;;;;;;;;;17.43;100.00;4252.97;5031498;28;19917;-75
2022/05/17 07:25:46;;;;;;;;;;;;;;;17.60;100.00;-1061.56;5030442;28;20040;-74
2022/05/17 07:28:13;;;;;;;;;;;;;;;17.59;100.00;3258.44;5029877;28;20358;-74
2022/05/17 07:30:39;;;;;;;;;;;;;;;17.63;100.00;2594.00;5029089;28;19918;-76
2022/05/17 07:33:04;;;;;;;;;;;;;;;17.76;100.00;269.25;5031270;28;19924;-76
2022/05/17 07:35:29;;;;;;;;;;;;;;;17.83;100.00;1267.31;5029300;28;19948;-76
2022/05/17 07:37:54;;;;;;;;;;;;;;;18.23;100.00;1605.63;5030066;28;20326;-75
2022/05/17 07:40:20;;;;;;;;;;;;;;;17.71;100.00;7586.19;5030355;28;20347;-77
2022/05/17 07:42:46;;;;;;;;;;;;;;;17.68;100.00;9583.31;5029547;28;19918;-75
2022/05/17 07:45:12;;;;;;;;;;;;;;;17.65;100.00;5920.44;5031078;28;20381;-75
2022/05/17 07:47:38;;;;;;;;;;;;;;;17.85;100.00;2597.59;5030757;28;19928;-77
2022/05/17 07:50:03;;;;;;;;;;;;;;;17.96;100.00;-60.72;5032292;28;20320;-76
2022/05/17 07:52:28;;;;;;;;;;;;;;;17.96;100.00;2599.41;5030932;28;20381;-79
2022/05/17 07:54:55;;;;;;;;;;;;;;;17.94;100.00;936.41;5031048;28;19925;-76
2022/05/17 07:57:21;;;;;;;;;;;;;;;18.26;100.00;3269.88;5033080;28;19968;-76
2022/05/17 07:59:47;;;;;;;;;;;;;;;18.47;100.00;3939.59;5031808;28;19921;-75
2022/05/17 08:02:12;;;;;;;;;;;;;;;19.81;100.00;8304.81;5029846;28;19925;-74
2022/05/17 08:04:38;;;;;;;;;;;;;;;20.90;100.00;43969.81;5033415;28;19991;-74
2022/05/17 08:07:04;;;;;;;;;;;;;;;21.80;100.00;93391.22;5033572;28;19951;-75
2022/05/17 08:09:29;;;;;;;;;;;;;;;21.72;100.00;148181.44;5033656;28;19917;-75
2022/05/17 08:11:54;;;;;;;;;;;;;;;21.17;100.00;148044.19;5035478;28;19920;-77
2022/05/17 08:14:21;;;;;;;;;;;;;;;20.47;100.00;147868.59;5034071;28;19967;-77
2022/05/17 08:16:46;;;;;;;;;;;;;;;20.19;100.00;147799.44;5034871;28;19988;-77
2022/05/17 08:19:12;;;;;;;;;;;;;;;19.97;100.00;147745.63;5050959;28;20007;-75
2022/05/17 08:21:37;;;;;;;;;;;;;;;20.15;100.00;147790.47;5033486;28;20370;-75
2022/05/17 08:24:02;;;;;;;;;;;;;;;19.99;100.00;147750.72;5033954;28;19927;-77
2022/05/17 08:29:12;;;;;;;;;;;;;;;19.91;100.00;147731.53;5055607;28;20552;-77
2022/05/17 08:31:37;;;;;;;;;;;;;;;20.04;100.00;147762.25;5054470;28;19916;-79
2022/05/17 08:34:02;;;;;;;;;;;;;;;19.94;100.00;147736.69;5036848;28;20366;-78
2022/05/17 08:36:28;;;;;;;;;;;;;;;19.90;100.00;147727.69;5037210;28;19959;-78
2022/05/17 08:38:53;;;;;;;;;;;;;;;19.93;100.00;147734.09;5036623;28;19986;-79
2022/05/17 08:41:37;;;;;;;;;;;;;;;19.54;100.00;147639.31;5037353;28;20011;-76
2022/05/17 08:44:19;;;;;;;;;;;;;;;19.74;100.00;147687.94;5052821;28;20003;-75
2022/05/17 08:47:00;;;;;;;;;;;;;;;19.70;100.00;147679.00;5035580;28;19953;-73
2022/05/17 08:49:27;;;;;;;;;;;;;;;19.70;100.00;147679.00;5035547;28;19917;-75
2022/05/17 08:51:55;;;;;;;;;;;;;;;20.34;100.00;147837.84;5035430;28;20388;-74
2022/05/17 08:54:41;;;;;;;;;;;;;;;20.54;100.00;147886.50;5052302;28;19924;-74
2022/05/17 08:57:28;;;;;;;;;;;;;;;20.76;100.00;147942.94;5034906;28;20285;-73
2022/05/17 08:59:54;;;;;;;;;;;;;;;21.13;100.00;148033.91;5025096;28;20385;-74
2022/05/17 09:02:24;;;;;;;;;;;;;;;21.05;100.00;148013.44;5035219;28;19942;-75
2022/05/17 09:04:50;;;;;;;;;;;;;;;20.89;100.00;147973.72;5052554;28;19966;-73
2022/05/17 09:07:18;;;;;;;;;;;;;;;20.87;100.00;147968.59;5052148;28;19921;-74
2022/05/17 09:10:02;;;;;;;;;;;;;;;20.91;100.00;147980.13;5051438;28;19949;-74
2022/05/17 09:12:30;;;;;;;;;;;;;;;20.23;100.00;147810.94;5051584;28;20297;-73
2022/05/17 09:14:58;;;;;;;;;;;;;;;20.77;100.00;147945.53;5052595;28;19924;-75
2022/05/17 09:17:25;;;;;;;;;;;;;;;20.71;100.00;147928.84;5035301;28;20406;-73
2022/05/17 09:19:51;;;;;;;;;;;;;;;20.18;100.00;147798.16;5034518;28;20288;-76
2022/05/17 09:22:16;;;;;;;;;;;;;;;20.52;100.00;147882.66;5035648;28;19932;-75
2022/05/17 09:24:43;;;;;;;;;;;;;;;20.68;100.00;147922.47;5034259;28;19917;-74
2022/05/17 09:27:30;;;;;;;;;;;;;;;20.42;100.00;147857.06;5052937;28;20262;-75
2022/05/17 09:30:12;;;;;;;;;;;;;;;20.99;100.00;147999.38;5034994;28;20002;-75
2022/05/17 09:32:39;;;;;;;;;;;;;;;21.18;100.00;148046.78;5035092;28;20007;-73
2022/05/17 09:35:18;;;;;;;;;;;;;;;20.81;100.00;147954.50;5051135;28;19917;-75
2022/05/17 09:37:45;;;;;;;;;;;;;;;21.33;100.00;148083.91;5034512;28;19925;-75
2022/05/17 09:40:13;;;;;;;;;;;;;;;21.48;100.00;148121.13;5034489;28;19947;-74
2022/05/17 09:42:43;;;;;;;;;;;;;;;21.28;100.00;148071.13;5051420;28;19921;-74
2022/05/17 09:45:12;;;;;;;;;;;;;;;21.08;100.00;148022.38;5052579;28;19942;-74
2022/05/17 09:47:42;;;;;;;;;;;;;;;21.89;100.00;148223.72;5034103;28;19927;-75
2022/05/17 09:52:59;;;;;;;;;;;;;;;20.95;100.00;147990.34;5052773;28;20017;-74
2022/05/17 09:55:27;;;;;;;;;;;;;;;21.95;100.00;148237.84;5034299;28;19916;-75
2022/05/17 09:57:57;;;;;;;;;;;;;;;21.63;100.00;148159.63;5034312;28;19917;-75
2022/05/17 10:00:24;;;;;;;;;;;;;;;21.43;100.00;148109.56;5034274;28;19961;-75
2022/05/17 10:02:57;;;;;;;;;;;;;;;21.46;100.00;148117.25;5051845;28;19920;-75
2022/05/17 10:05:23;;;;;;;;;;;;;;;21.11;100.00;148028.81;5052234;28;20351;-75
2022/05/17 10:07:58;;;;;;;;;;;;;;;21.29;100.00;148074.97;5050919;28;19917;-74
2022/05/17 10:10:35;;;;;;;;;;;;;;;22.28;100.00;148319.91;5051968;28;19935;-73
2022/05/17 10:13:15;;;;;;;;;;;;;;;22.46;100.00;148366.16;5034310;28;20546;-74
2022/05/17 10:15:42;;;;;;;;;;;;;;;22.28;100.00;148321.22;5051645;28;19912;-74
2022/05/17 10:18:19;;;;;;;;;;;;;;;22.95;100.00;148489.34;5052289;28;20015;-73
2022/05/17 10:20:47;;;;;;;;;;;;;;;23.10;100.00;148525.31;5033932;28;20428;-74
2022/05/17 10:23:24;;;;;;;;;;;;;;;22.47;100.00;148368.72;5034054;28;19924;-74
2022/05/17 10:25:58;;;;;;;;;;;;;;;22.89;100.00;148472.66;5029563;28;20275;-76
2022/05/17 10:28:30;;;;;;;;;;;;;;;22.95;100.00;148488.06;5047374;28;19999;-74
2022/05/17 10:30:59;;;;;;;;;;;;;;;22.49;100.00;148372.56;5047331;28;19926;-77
2022/05/17 10:33:35;;;;;;;;;;;;;;;22.30;100.00;148325.06;5030757;28;19921;-75
2022/05/17 10:36:08;;;;;;;;;;;;;;;22.30;100.00;148325.06;5032354;28;19917;-74
2022/05/17 10:38:36;;;;;;;;;;;;;;;22.72;100.00;148431.59;5030266;28;19947;-75
2022/05/17 10:41:04;;;;;;;;;;;;;;;22.35;100.00;148337.94;5030732;28;19917;-74
2022/05/17 10:43:33;;;;;;;;;;;;;;;23.16;100.00;148540.72;5030120;28;19918;-74
2022/05/17 10:46:04;;;;;;;;;;;;;;;23.12;100.00;148530.47;5030608;28;19925;-74
2022/05/17 10:48:48;;;;;;;;;;;;;;;22.59;100.00;148398.19;5047617;28;19917;-74
2022/05/17 10:51:23;;;;;;;;;;;;;;;23.13;100.00;148533.00;5046724;28;20373;-76
2022/05/17 10:53:56;;;;;;;;;;;;;;;22.34;100.00;148336.66;5047017;28;19924;-75
2022/05/17 10:56:32;;;;;;;;;;;;;;;21.93;100.00;148234.00;5030516;28;19913;-75
2022/05/17 10:59:11;;;;;;;;;;;;;;;21.55;100.00;148137.81;5030583;28;20304;-77
2022/05/17 11:01:42;;;;;;;;;;;;;;;22.01;100.00;148253.22;5030175;28;19940;-75
2022/05/17 11:04:21;;;;;;;;;;;;;;;22.26;100.00;148314.78;5047197;28;19924;-77
2022/05/17 11:06:51;;;;;;;;;;;;;;;22.98;100.00;148494.44;5030640;28;19917;-74
2022/05/17 11:09:24;;;;;;;;;;;;;;;23.16;100.00;148540.72;5030974;28;19917;-75
2022/05/17 11:11:49;;;;;;;;;;;;;;;23.51;100.00;148628.00;5029384;28;19920;-76
2022/05/17 11:14:30;;;;;;;;;;;;;;;23.56;100.00;148639.56;5046904;28;19923;-75
2022/05/17 11:16:59;;;;;;;;;;;;;;;23.26;100.00;148566.41;5030290;28;19971;-73
2022/05/17 11:19:44;;;;;;;;;;;;;;;23.16;100.00;148540.72;5031452;28;19917;-75
2022/05/17 11:22:21;;;;;;;;;;;;;;;22.95;100.00;148489.34;5030398;28;19917;-78
2022/05/17 11:25:05;;;;;;;;;;;;;;;23.05;100.00;148512.44;5032570;28;19943;-77
2022/05/17 11:27:40;;;;;;;;;;;;;;;23.11;100.00;148527.88;5049672;28;19918;-74
2022/05/17 11:30:21;;;;;;;;;;;;;;;23.47;100.00;148619.00;5049957;28;20315;-77
2022/05/17 11:33:08;;;;;;;;;;;;;;;23.90;100.00;148724.38;5032741;28;19920;-76
2022/05/17 11:35:34;;;;;;;;;;;;;;;24.15;100.00;148787.28;5051287;28;19917;-78
2022/05/17 11:37:59;;;;;;;;;;;;;;;23.93;100.00;148732.06;5049761;28;19921;-79
2022/05/17 11:40:42;;;;;;;;;;;;;;;24.26;100.00;148815.53;5033366;28;19917;-75
2022/05/17 11:45:54;;;;;;;;;;;;;;;23.27;100.00;148568.97;5050313;28;20380;-75
2022/05/17 11:48:43;;;;;;;;;;;;;;;23.12;100.00;148531.72;5032955;28;20292;-75
2022/05/17 11:51:08;;;;;;;;;;;;;;;23.64;100.00;148661.38;5033256;28;19919;-75
2022/05/17 11:53:43;;;;;;;;;;;;;;;23.40;100.00;148599.75;5050587;28;19917;-75
2022/05/17 11:56:18;;;;;;;;;;;;;;;23.33;100.00;148583.06;5033432;28;19916;-76
2022/05/17 11:58:45;;;;;;;;;;;;;;;23.55;100.00;148636.97;5049519;28;19917;-77
2022/05/17 12:01:27;;;;;;;;;;;;;;;23.65;100.00;148662.69;5033133;28;20424;-75
2022/05/17 12:03:56;;;;;;;;;;;;;;;23.59;100.00;148648.53;5049749;28;20339;-75
2022/05/17 12:06:41;;;;;;;;;;;;;;;23.73;100.00;148681.94;5032801;28;19923;-75
2022/05/17 12:09:26;;;;;;;;;;;;;;;24.34;100.00;148836.06;5049419;28;20269;-76
2022/05/17 12:12:10;;;;;;;;;;;;;;;23.67;100.00;148669.06;5039752;28;19959;-76
2022/05/17 12:14:49;;;;;;;;;;;;;;;24.09;100.00;148771.88;5049280;28;19916;-76
2022/05/17 12:17:15;;;;;;;;;;;;;;;24.11;100.00;148777.00;5033025;28;19917;-75
2022/05/17 12:19:53;;;;;;;;;;;;;;;24.46;100.00;148864.34;5032310;28;20414;-75
2022/05/17 12:22:32;;;;;;;;;;;;;;;24.52;100.00;148881.03;5032197;28;19920;-76
2022/05/17 12:25:17;;;;;;;;;;;;;;;24.00;100.00;148751.34;5050332;28;20016;-74
2022/05/17 12:27:43;;;;;;;;;;;;;;;24.80;100.00;148949.19;5031465;28;19960;-76
2022/05/17 12:33:17;;;;;;;;;;;;;;;24.54;100.00;148884.88;5060300;28;20282;-74
2022/05/17 12:35:46;;;;;;;;;;;;;;;24.10;100.00;148775.72;5055944;28;19928;-75
2022/05/17 12:43:46;;;;;;;;;;;;;;;23.51;100.00;148628.00;5070512;28;20268;-76
2022/05/17 12:46:21;;;;;;;;;;;;;;;24.10;100.00;148774.41;5053211;28;19917;-75
2022/05/17 12:48:48;;;;;;;;;;;;;;;23.99;100.00;148747.47;5053359;28;19975;-79
2022/05/17 12:51:16;;;;;;;;;;;;;;;24.19;100.00;148798.84;5067055;28;19920;-81
2022/05/17 12:53:44;;;;;;;;;;;;;;;24.28;100.00;148819.38;5076095;28;20292;-75
2022/05/17 12:56:11;;;;;;;;;;;;;;;24.42;100.00;148855.31;5093919;28;19923;-78
2022/05/17 12:58:46;;;;;;;;;;;;;;;24.38;100.00;148846.34;5093988;28;19916;-77